createdAt,value
2019-06-19T00:00:14.441Z,100128.13
2019-06-19T00:02:43.144Z,100122.44
2019-06-19T00:05:12.799Z,100119.75
2019-06-19T00:07:42.542Z,100122.56
2019-06-19T00:10:12.377Z,100117.73
2019-06-19T00:12:39.003Z,100114.75
2019-06-19T00:15:06.154Z,100116.14
2019-06-19T00:17:33.570Z,100107.85
2019-06-19T00:20:02.851Z,100108.37
2019-06-19T00:22:30.131Z,100101.37
2019-06-19T00:24:57.338Z,100102.00
2019-06-19T00:27:24.408Z,100101.29
2019-06-19T00:29:51.647Z,100098.48
2019-06-19T00:32:20.634Z,100097.86
2019-06-19T00:34:47.825Z,100090.36
2019-06-19T00:37:15.047Z,100089.33
2019-06-19T00:39:42.670Z,100079.88
2019-06-19T00:42:10.871Z,100082.27
2019-06-19T00:44:40.721Z,100083.95
2019-06-19T00:47:07.842Z,100083.43
2019-06-19T00:49:35.017Z,100085.30
2019-06-19T00:52:02.327Z,100078.60
2019-06-19T00:54:31.734Z,100080.75
2019-06-19T00:57:01.497Z,100082.22
2019-06-19T00:59:31.081Z,100083.69
2019-06-19T01:02:00.834Z,100084.89
2019-06-19T01:04:27.209Z,100080.56
2019-06-19T01:06:54.604Z,100085.61
2019-06-19T01:09:22.156Z,100079.59
2019-06-19T01:11:51.501Z,100082.68
2019-06-19T01:14:21.049Z,100078.09
2019-06-19T01:16:47.958Z,100084.34
2019-06-19T01:19:15.278Z,100086.98
2019-06-19T01:21:42.942Z,100089.70
2019-06-19T01:24:10.648Z,100095.45
2019-06-19T01:26:40.504Z,100091.70
2019-06-19T01:29:07.342Z,100088.06
2019-06-19T01:31:34.722Z,100089.14
2019-06-19T01:34:02.006Z,100091.05
2019-06-19T01:36:31.313Z,100088.73
2019-06-19T01:39:00.721Z,100081.30
2019-06-19T01:41:28.295Z,100078.66
2019-06-19T01:43:55.989Z,100079.50
2019-06-19T01:46:23.447Z,100071.80
2019-06-19T01:48:51.913Z,100070.45
2019-06-19T01:51:20.732Z,100066.31
2019-06-19T01:54:17.569Z,100076.62
2019-06-19T01:56:45.742Z,100065.82
2019-06-19T01:59:13.081Z,100065.82
2019-06-19T02:01:41.167Z,100067.02
2019-06-19T02:04:11.547Z,100058.55
2019-06-19T02:06:37.886Z,100056.19
2019-06-19T02:09:06.678Z,100046.70
2019-06-19T02:11:33.913Z,100044.73
2019-06-19T02:14:01.250Z,100043.76
2019-06-19T02:16:31.131Z,100039.96
2019-06-19T02:18:58.103Z,100038.80
2019-06-19T02:21:25.406Z,100044.34
2019-06-19T02:23:52.834Z,100041.34
2019-06-19T02:26:21.245Z,100040.77
2019-06-19T02:28:50.622Z,100040.00
2019-06-19T02:31:21.887Z,100044.59
2019-06-19T02:33:47.725Z,100043.19
2019-06-19T02:36:15.235Z,100041.58
2019-06-19T02:38:42.663Z,100042.19
2019-06-19T02:41:10.673Z,100039.45
2019-06-19T02:43:38.164Z,100029.83
2019-06-19T02:46:05.760Z,100034.90
2019-06-19T02:48:33.080Z,100036.09
2019-06-19T02:51:00.471Z,100034.27
2019-06-19T02:53:27.893Z,100035.28
2019-06-19T02:55:55.710Z,100043.80
2019-06-19T02:58:23.033Z,100034.13
2019-06-19T03:00:50.356Z,100036.09
2019-06-19T03:03:17.799Z,100039.57
2019-06-19T03:05:45.080Z,100042.08
2019-06-19T03:08:12.440Z,100039.06
2019-06-19T03:10:39.783Z,100044.87
2019-06-19T03:13:07.248Z,100047.98
2019-06-19T03:15:34.716Z,100055.75
2019-06-19T03:18:02.114Z,100052.94
2019-06-19T03:20:29.404Z,100043.66
2019-06-19T03:22:56.760Z,100053.72
2019-06-19T03:25:24.244Z,100056.08
2019-06-19T03:27:51.565Z,100047.88
2019-06-19T03:30:19.582Z,100047.88
2019-06-19T03:32:46.875Z,100048.19
2019-06-19T03:35:14.387Z,100046.84
2019-06-19T03:37:41.770Z,100043.86
2019-06-19T03:40:09.939Z,100040.51
2019-06-19T03:42:37.465Z,100043.13
2019-06-19T03:45:04.982Z,100041.83
2019-06-19T03:47:32.510Z,100035.10
2019-06-19T03:49:59.944Z,100038.80
2019-06-19T03:52:27.294Z,100036.90
2019-06-19T03:54:54.946Z,100039.75
2019-06-19T03:57:22.517Z,100033.20
2019-06-19T03:59:50.203Z,100037.03
2019-06-19T04:02:17.575Z,100037.66
2019-06-19T04:04:45.136Z,100043.26
2019-06-19T04:07:12.468Z,100043.05
2019-06-19T04:09:39.835Z,100041.19
2019-06-19T04:12:07.227Z,100040.61
2019-06-19T04:14:34.594Z,100037.09
2019-06-19T04:17:01.846Z,100037.29
2019-06-19T04:19:29.179Z,100043.92
2019-06-19T04:21:56.625Z,100038.80
2019-06-19T04:24:23.911Z,100040.78
2019-06-19T04:26:51.424Z,100047.52
2019-06-19T04:29:21.813Z,100054.72
2019-06-19T04:32:01.465Z,100048.78
2019-06-19T04:34:18.464Z,100048.71
2019-06-19T04:36:48.406Z,100054.37
2019-06-19T04:39:15.937Z,100052.02
2019-06-19T04:41:43.350Z,100052.95
2019-06-19T04:44:10.765Z,100050.23
2019-06-19T04:46:38.252Z,100043.85
2019-06-19T04:49:05.866Z,100051.91
2019-06-19T04:51:33.287Z,100054.62
2019-06-19T04:54:00.622Z,100052.48
2019-06-19T04:56:28.023Z,100063.09
2019-06-19T04:58:55.520Z,100060.81
2019-06-19T05:01:24.654Z,100058.20
2019-06-19T05:03:52.048Z,100061.20
2019-06-19T05:06:19.483Z,100058.69
2019-06-19T05:08:48.764Z,100051.95
2019-06-19T05:11:16.523Z,100053.84
2019-06-19T05:13:43.913Z,100046.92
2019-06-19T05:16:11.553Z,100047.36
2019-06-19T05:18:38.781Z,100048.92
2019-06-19T05:21:06.171Z,100050.05
2019-06-19T05:23:34.047Z,100039.06
2019-06-19T05:26:01.383Z,100039.06
2019-06-19T05:28:28.859Z,100043.73
2019-06-19T05:30:56.203Z,100043.23
2019-06-19T05:33:23.555Z,100036.05
2019-06-19T05:35:50.912Z,100035.84
2019-06-19T05:38:18.187Z,100031.19
2019-06-19T05:40:46.383Z,100018.90
2019-06-19T05:43:13.683Z,100022.59
2019-06-19T05:45:41.043Z,100016.86
2019-06-19T05:48:08.278Z,100014.95
2019-06-19T05:50:35.603Z,100014.34
2019-06-19T05:53:03.729Z,100014.09
2019-06-19T05:55:31.626Z,100014.83
2019-06-19T05:57:59.092Z,100025.20
2019-06-19T06:00:29.248Z,100026.39
2019-06-19T06:02:56.654Z,100028.08
2019-06-19T06:05:23.979Z,100029.55
2019-06-19T06:07:51.494Z,100027.34
2019-06-19T06:10:18.899Z,100026.64
2019-06-19T06:12:46.464Z,100015.42
2019-06-19T06:15:13.914Z,100016.42
2019-06-19T06:17:41.224Z,100015.77
2019-06-19T06:20:24.308Z,100011.77
2019-06-19T06:22:51.687Z,100009.19
2019-06-19T06:25:19.080Z,100008.08
2019-06-19T06:27:46.535Z,100005.86
2019-06-19T06:30:13.821Z,100003.32
2019-06-19T06:32:41.148Z,100010.33
2019-06-19T06:35:08.846Z,100004.09
2019-06-19T06:37:36.193Z,100003.63
2019-06-19T06:40:04.715Z,100004.11
2019-06-19T06:42:32.111Z,100009.06
2019-06-19T06:44:59.520Z,100007.31
2019-06-19T06:47:26.817Z,100004.17
2019-06-19T06:49:54.194Z,100001.33
2019-06-19T06:52:21.431Z,100001.69
2019-06-19T06:54:48.821Z,99997.04
2019-06-19T06:57:16.203Z,99993.41
2019-06-19T06:59:44.088Z,99987.52
2019-06-19T07:02:12.897Z,99983.82
2019-06-19T07:04:40.758Z,99984.39
2019-06-19T07:07:08.021Z,99985.25
2019-06-19T07:09:35.533Z,99985.62
2019-06-19T07:12:03.077Z,99981.70
2019-06-19T07:14:30.424Z,99989.21
2019-06-19T07:16:58.181Z,99987.36
2019-06-19T07:19:25.395Z,99997.02
2019-06-19T07:21:52.738Z,99997.34
2019-06-19T07:24:20.030Z,99992.89
2019-06-19T07:26:52.878Z,99976.75
2019-06-19T07:29:16.626Z,99978.27
2019-06-19T07:31:43.958Z,99974.64
2019-06-19T07:34:11.282Z,99972.13
2019-06-19T07:36:38.601Z,99970.31
2019-06-19T07:39:05.933Z,99967.80
2019-06-19T07:41:33.533Z,99960.45
2019-06-19T07:44:01.056Z,99964.39
2019-06-19T07:46:28.486Z,99965.51
2019-06-19T07:48:55.830Z,99956.44
2019-06-19T07:51:23.190Z,99954.58
2019-06-19T07:53:50.875Z,99951.52
2019-06-19T07:56:18.423Z,99960.58
2019-06-19T07:58:46.680Z,99961.30
2019-06-19T08:01:14.215Z,99951.88
2019-06-19T08:03:54.270Z,99949.57
2019-06-19T08:06:10.972Z,99949.95
2019-06-19T08:08:38.316Z,99952.59
2019-06-19T08:11:05.714Z,99953.95
2019-06-19T08:13:33.088Z,99960.67
2019-06-19T08:16:00.434Z,99964.77
2019-06-19T08:18:27.860Z,99967.23
2019-06-19T08:20:55.035Z,99958.41
2019-06-19T08:23:22.697Z,99963.63
2019-06-19T08:25:50.968Z,99953.55
2019-06-19T08:28:18.306Z,99950.66
2019-06-19T08:30:45.674Z,99952.80
2019-06-19T08:33:13.173Z,99956.53
2019-06-19T08:35:40.361Z,99961.00
2019-06-19T08:38:07.641Z,99955.27
2019-06-19T08:40:34.985Z,99959.89
2019-06-19T08:43:02.182Z,99957.92
2019-06-19T08:45:29.630Z,99956.29
2019-06-19T08:47:56.917Z,99952.80
2019-06-19T08:50:24.172Z,99960.67
2019-06-19T08:52:51.527Z,99953.49
2019-06-19T08:55:19.272Z,99952.73
2019-06-19T08:57:46.717Z,99952.33
2019-06-19T09:00:19.972Z,99945.02
2019-06-19T09:02:47.274Z,99947.30
2019-06-19T09:05:14.919Z,99943.84
2019-06-19T09:07:42.391Z,99940.55
2019-06-19T09:10:16.277Z,99936.28
2019-06-19T09:12:43.661Z,99936.16
2019-06-19T09:15:11.378Z,99924.02
2019-06-19T09:17:38.607Z,99919.14
2019-06-19T09:20:06.026Z,99919.27
2019-06-19T09:22:33.386Z,99910.94
2019-06-19T09:25:01.190Z,99908.05
2019-06-19T09:27:28.657Z,99908.27
2019-06-19T09:29:56.345Z,99910.20
2019-06-19T09:32:23.954Z,99913.56
2019-06-19T09:34:51.672Z,99904.07
2019-06-19T09:37:19.070Z,99905.50
2019-06-19T09:39:46.614Z,99910.13
2019-06-19T09:42:13.975Z,99897.00
2019-06-19T09:44:41.698Z,99890.86
2019-06-19T09:47:09.128Z,99895.37
2019-06-19T09:49:36.510Z,99894.64
2019-06-19T09:52:03.933Z,99884.89
2019-06-19T09:54:31.261Z,99888.31
2019-06-19T09:56:58.630Z,99891.94
2019-06-19T09:59:26.040Z,99880.55
2019-06-19T10:01:54.319Z,99879.34
2019-06-19T10:04:21.711Z,99879.87
2019-06-19T10:06:48.988Z,99886.33
2019-06-19T10:09:16.437Z,99883.19
2019-06-19T10:11:43.689Z,99880.85
2019-06-19T10:14:11.087Z,99887.89
2019-06-19T10:16:38.298Z,99882.26
2019-06-19T10:19:05.651Z,99885.52
2019-06-19T10:21:33.073Z,99882.61
2019-06-19T10:24:00.435Z,99874.25
2019-06-19T10:26:27.771Z,99882.81
2019-06-19T10:28:56.022Z,99876.31
2019-06-19T10:31:23.515Z,99881.95
2019-06-19T10:33:50.982Z,99877.89
2019-06-19T10:36:18.334Z,99872.73
2019-06-19T10:38:45.681Z,99870.98
2019-06-19T10:41:13.079Z,99873.38
2019-06-19T10:43:40.407Z,99865.16
2019-06-19T10:46:07.803Z,99868.51
2019-06-19T10:48:35.131Z,99867.64
2019-06-19T10:51:02.351Z,99870.42
2019-06-19T10:53:29.650Z,99881.12
2019-06-19T10:55:57.088Z,99880.69
2019-06-19T10:58:24.329Z,99873.03
2019-06-19T11:00:51.648Z,99868.57
2019-06-19T11:03:19.902Z,99870.29
2019-06-19T11:05:47.191Z,99866.70
2019-06-19T11:08:14.587Z,99863.12
2019-06-19T11:10:42.460Z,99858.35
2019-06-19T11:13:09.953Z,99852.86
2019-06-19T11:15:37.702Z,99850.65
2019-06-19T11:18:05.071Z,99842.42
2019-06-19T11:20:32.400Z,99845.42
2019-06-19T11:22:59.788Z,99851.15
2019-06-19T11:25:27.123Z,99839.93
2019-06-19T11:27:54.497Z,99842.19
2019-06-19T11:30:22.262Z,99848.78
2019-06-19T11:32:49.540Z,99846.70
2019-06-19T11:35:16.856Z,99848.55
2019-06-19T11:37:44.521Z,99850.50
2019-06-19T11:40:11.999Z,99849.28
2019-06-19T11:42:39.481Z,99847.28
2019-06-19T11:45:07.152Z,99847.84
2019-06-19T11:47:34.897Z,99851.06
2019-06-19T11:50:02.371Z,99842.06
2019-06-19T11:52:29.969Z,99838.34
2019-06-19T11:54:57.533Z,99848.44
2019-06-19T11:57:25.023Z,99845.40
2019-06-19T11:59:53.774Z,99842.18
2019-06-19T12:02:21.317Z,99844.91
2019-06-19T12:04:49.640Z,99847.03
2019-06-19T12:07:17.454Z,99838.47
2019-06-19T12:09:44.918Z,99844.94
2019-06-19T12:12:12.257Z,99840.80
2019-06-19T12:14:39.700Z,99839.12
2019-06-19T12:17:07.044Z,99838.69
2019-06-19T12:19:34.467Z,99844.05
2019-06-19T12:22:01.728Z,99839.44
2019-06-19T12:24:31.306Z,99835.34
2019-06-19T12:26:58.491Z,99837.75
2019-06-19T12:29:26.157Z,99834.20
2019-06-19T12:31:53.498Z,99821.33
2019-06-19T12:34:20.934Z,99828.14
2019-06-19T12:36:48.330Z,99817.20
2019-06-19T12:39:16.426Z,99815.28
2019-06-19T12:41:43.960Z,99813.67
2019-06-19T12:44:11.281Z,99814.20
2019-06-19T12:46:38.901Z,99816.69
2019-06-19T12:49:06.254Z,99807.39
2019-06-19T12:51:33.696Z,99797.97
2019-06-19T12:54:01.096Z,99801.12
2019-06-19T12:56:28.508Z,99793.50
2019-06-19T12:58:55.992Z,99793.38
2019-06-19T13:01:23.525Z,99790.92
2019-06-19T13:03:50.702Z,99789.92
2019-06-19T13:06:18.439Z,99787.67
2019-06-19T13:08:45.713Z,99784.00
2019-06-19T13:11:12.971Z,99775.19
2019-06-19T13:13:40.293Z,99772.10
2019-06-19T13:16:10.280Z,99771.55
2019-06-19T13:18:37.006Z,99768.84
2019-06-19T13:21:04.387Z,99766.44
2019-06-19T13:23:31.619Z,99762.21
2019-06-19T13:25:58.973Z,99766.95
2019-06-19T13:28:26.393Z,99762.41
2019-06-19T13:30:53.761Z,99761.09
2019-06-19T13:33:21.185Z,99754.17
2019-06-19T13:35:48.286Z,99752.56
2019-06-19T13:38:15.517Z,99757.80
2019-06-19T13:40:42.978Z,99758.98
2019-06-19T13:43:10.301Z,99749.37
2019-06-19T13:45:37.403Z,99750.30
2019-06-19T13:48:06.458Z,99753.89
2019-06-19T13:50:33.869Z,99751.81
2019-06-19T13:53:01.158Z,99764.93
2019-06-19T13:55:28.437Z,99754.23
2019-06-19T13:57:55.833Z,99744.33
2019-06-19T14:00:23.267Z,99749.30
2019-06-19T14:02:50.659Z,99752.38
2019-06-19T14:05:18.315Z,99743.27
2019-06-19T14:07:45.899Z,99739.58
2019-06-19T14:10:13.428Z,99739.28
2019-06-19T14:12:40.794Z,99727.61
2019-06-19T14:15:08.601Z,99729.58
2019-06-19T14:17:36.120Z,99735.56
2019-06-19T14:20:04.171Z,99739.06
2019-06-19T14:22:31.611Z,99733.64
2019-06-19T14:24:59.009Z,99731.22
2019-06-19T14:27:26.329Z,99728.28
2019-06-19T14:29:53.572Z,99725.64
2019-06-19T14:32:21.103Z,99726.50
2019-06-19T14:34:48.298Z,99725.73
2019-06-19T14:37:15.735Z,99717.83
2019-06-19T14:39:42.974Z,99712.13
2019-06-19T14:42:10.321Z,99715.97
2019-06-19T14:44:39.886Z,99707.84
2019-06-19T14:47:06.746Z,99713.36
2019-06-19T14:49:34.015Z,99713.73
2019-06-19T14:52:01.401Z,99705.95
2019-06-19T14:54:28.623Z,99702.13
2019-06-19T14:56:56.143Z,99703.36
2019-06-19T14:59:23.383Z,99696.83
2019-06-19T15:01:54.400Z,99698.86
2019-06-19T15:04:20.093Z,99686.23
2019-06-19T15:06:48.038Z,99691.34
2019-06-19T15:09:15.122Z,99686.27
2019-06-19T15:11:42.477Z,99685.72
2019-06-19T15:14:09.608Z,99685.41
2019-06-19T15:16:36.904Z,99677.72
2019-06-19T15:19:04.157Z,99681.67
2019-06-19T15:21:31.465Z,99689.98
2019-06-19T15:23:58.726Z,99679.25
2019-06-19T15:26:25.931Z,99677.73
2019-06-19T15:28:53.182Z,99673.37
2019-06-19T15:31:20.660Z,99669.38
2019-06-19T15:33:47.838Z,99668.66
2019-06-19T15:36:15.153Z,99670.57
2019-06-19T15:38:42.491Z,99665.69
2019-06-19T15:41:09.718Z,99659.41
2019-06-19T15:43:36.948Z,99669.48
2019-06-19T15:46:04.168Z,99666.73
2019-06-19T15:48:31.378Z,99665.65
2019-06-19T15:50:58.768Z,99668.91
2019-06-19T15:53:26.148Z,99661.83
2019-06-19T15:55:53.238Z,99663.48
2019-06-19T15:58:20.930Z,99662.83
2019-06-19T16:00:48.263Z,99662.98
2019-06-19T16:03:15.863Z,99662.45
2019-06-19T16:05:43.124Z,99664.36
2019-06-19T16:08:10.354Z,99668.42
2019-06-19T16:10:37.538Z,99661.06
2019-06-19T16:13:05.086Z,99659.58
2019-06-19T16:15:32.370Z,99666.08
2019-06-19T16:17:59.452Z,99663.96
2019-06-19T16:20:26.735Z,99674.15
2019-06-19T16:22:53.998Z,99672.27
2019-06-19T16:25:21.340Z,99681.16
2019-06-19T16:27:48.684Z,99676.47
2019-06-19T16:30:16.430Z,99680.70
2019-06-19T16:32:43.712Z,99682.64
2019-06-19T16:35:11.268Z,99679.38
2019-06-19T16:37:38.986Z,99677.41
2019-06-19T16:40:09.167Z,99678.78
2019-06-19T16:42:36.545Z,99660.30
2019-06-19T16:45:04.714Z,99669.97
2019-06-19T16:47:32.285Z,99668.70
2019-06-19T16:49:59.602Z,99669.82
2019-06-19T16:52:27.173Z,99675.54
2019-06-19T16:54:54.415Z,99677.41
2019-06-19T16:57:21.627Z,99668.72
2019-06-19T16:59:49.017Z,99661.62
2019-06-19T17:02:16.177Z,99656.37
2019-06-19T17:04:43.385Z,99665.10
2019-06-19T17:07:10.541Z,99665.89
2019-06-19T17:09:37.923Z,99668.09
2019-06-19T17:12:05.277Z,99665.99
2019-06-19T17:14:32.739Z,99679.96
2019-06-19T17:17:00.362Z,99669.69
2019-06-19T17:19:27.639Z,99669.96
2019-06-19T17:21:54.873Z,99678.45
2019-06-19T17:24:21.971Z,99684.73
2019-06-19T17:26:49.187Z,99679.28
2019-06-19T17:29:16.345Z,99687.21
2019-06-19T17:31:43.549Z,99681.47
2019-06-19T17:34:10.728Z,99686.92
2019-06-19T17:36:37.943Z,99692.92
2019-06-19T17:39:20.779Z,99689.37
2019-06-19T17:41:35.959Z,99691.56
2019-06-19T17:44:03.550Z,99693.41
2019-06-19T17:46:30.741Z,99699.81
2019-06-19T17:48:58.255Z,99706.31
2019-06-19T17:51:25.653Z,99698.30
2019-06-19T17:53:52.881Z,99704.48
2019-06-19T17:56:20.386Z,99704.16
2019-06-19T17:58:47.638Z,99698.67
2019-06-19T18:01:14.892Z,99697.63
2019-06-19T18:03:42.413Z,99707.69
2019-06-19T18:06:09.723Z,99717.62
2019-06-19T18:08:37.004Z,99721.81
2019-06-19T18:11:04.314Z,99716.67
2019-06-19T18:13:31.827Z,99720.51
2019-06-19T18:15:59.032Z,99722.12
2019-06-19T18:18:26.269Z,99720.47
2019-06-19T18:20:53.331Z,99721.00
2019-06-19T18:23:20.514Z,99720.91
2019-06-19T18:25:47.894Z,99718.39
2019-06-19T18:28:15.596Z,99722.43
2019-06-19T18:30:42.967Z,99717.01
2019-06-19T18:33:10.439Z,99722.64
2019-06-19T18:35:37.845Z,99726.64
2019-06-19T18:38:05.053Z,99718.37
2019-06-19T18:40:32.349Z,99718.48
2019-06-19T18:42:59.552Z,99720.02
2019-06-19T18:45:27.032Z,99723.20
2019-06-19T18:47:57.041Z,99723.36
2019-06-19T18:50:23.511Z,99723.23
2019-06-19T18:52:50.718Z,99721.98
2019-06-19T18:55:17.947Z,99724.27
2019-06-19T18:57:45.165Z,99720.61
2019-06-19T19:00:14.016Z,99723.78
2019-06-19T19:02:42.419Z,99726.08
2019-06-19T19:05:10.607Z,99725.95
2019-06-19T19:07:38.005Z,99723.02
2019-06-19T19:10:12.587Z,99722.44
2019-06-19T19:12:35.785Z,99720.37
2019-06-19T19:15:03.640Z,99727.77
2019-06-19T19:17:31.039Z,99724.28
2019-06-19T19:19:58.358Z,99727.88
2019-06-19T19:22:25.743Z,99733.39
2019-06-19T19:24:53.323Z,99734.93
2019-06-19T19:27:20.562Z,99744.59
2019-06-19T19:29:47.793Z,99734.57
2019-06-19T19:32:16.141Z,99737.56
2019-06-19T19:34:43.565Z,99744.31
2019-06-19T19:37:11.416Z,99736.55
2019-06-19T19:39:39.018Z,99745.12
2019-06-19T19:42:09.510Z,99750.47
2019-06-19T19:44:37.197Z,99755.38
2019-06-19T19:47:09.358Z,99754.56
2019-06-19T19:49:36.566Z,99754.73
2019-06-19T19:52:04.426Z,99759.47
2019-06-19T19:54:32.108Z,99759.24
2019-06-19T19:56:59.772Z,99758.01
2019-06-19T19:59:27.195Z,99763.39
2019-06-19T20:01:54.699Z,99757.06
2019-06-19T20:04:22.071Z,99763.59
2019-06-19T20:06:50.377Z,99763.94
2019-06-19T20:09:17.875Z,99765.89
2019-06-19T20:11:45.703Z,99768.75
2019-06-19T20:14:12.930Z,99778.69
2019-06-19T20:16:40.198Z,99778.67
2019-06-19T20:19:07.409Z,99782.03
2019-06-19T20:21:34.636Z,99786.94
2019-06-19T20:24:02.392Z,99789.64
2019-06-19T20:26:31.842Z,99793.48
2019-06-19T20:28:59.376Z,99802.13
2019-06-19T20:31:27.862Z,99807.02
2019-06-19T20:33:55.097Z,99801.82
2019-06-19T20:36:22.316Z,99804.05
2019-06-19T20:38:49.594Z,99809.16
2019-06-19T20:41:16.757Z,99812.98
2019-06-19T20:43:44.125Z,99808.69
2019-06-19T20:46:24.745Z,99815.58
2019-06-19T20:48:40.801Z,99806.55
2019-06-19T20:51:08.297Z,99812.81
2019-06-19T20:53:35.580Z,99821.66
2019-06-19T20:56:03.086Z,99823.48
2019-06-19T20:58:30.635Z,99828.19
2019-06-19T21:00:58.224Z,99824.69
2019-06-19T21:03:25.463Z,99828.80
2019-06-19T21:05:52.658Z,99831.15
2019-06-19T21:08:29.481Z,99835.77
2019-06-19T21:11:19.208Z,99843.03
2019-06-19T21:13:33.141Z,99859.11
2019-06-19T21:16:03.291Z,99856.87
2019-06-19T21:18:29.956Z,99857.47
2019-06-19T21:20:57.240Z,99851.41
2019-06-19T21:23:25.019Z,99855.08
2019-06-19T21:25:52.457Z,99859.37
2019-06-19T21:30:46.531Z,99858.23
2019-06-19T21:33:13.900Z,99862.64
2019-06-19T21:35:41.158Z,99852.92
2019-06-19T21:38:08.297Z,99857.10
2019-06-19T21:40:35.592Z,99848.87
2019-06-19T21:43:02.999Z,99843.40
2019-06-19T21:45:30.668Z,99848.34
2019-06-19T21:47:58.020Z,99856.14
2019-06-19T21:50:25.141Z,99844.02
2019-06-19T21:52:52.429Z,99844.53
2019-06-19T21:55:19.950Z,99855.39
2019-06-19T21:57:47.206Z,99849.54
2019-06-19T22:00:18.674Z,99851.98
2019-06-19T22:02:47.959Z,99857.03
2019-06-19T22:05:15.632Z,99844.29
2019-06-19T22:07:42.837Z,99851.78
2019-06-19T22:10:11.722Z,99852.25
2019-06-19T22:12:39.556Z,99851.41
2019-06-19T22:15:08.684Z,99858.47
2019-06-19T22:17:35.925Z,99854.48
2019-06-19T22:20:03.825Z,99867.28
2019-06-19T22:22:31.365Z,99855.17
2019-06-19T22:24:58.810Z,99864.81
2019-06-19T22:27:26.770Z,99856.73
2019-06-19T22:29:54.123Z,99855.30
2019-06-19T22:32:21.490Z,99853.12
2019-06-19T22:34:48.662Z,99851.02
2019-06-19T22:37:15.887Z,99843.74
2019-06-19T22:39:43.408Z,99848.95
2019-06-19T22:42:12.084Z,99847.27
2019-06-19T22:44:39.573Z,99850.71
2019-06-19T22:47:06.890Z,99858.10
2019-06-19T22:49:34.245Z,99867.73
2019-06-19T22:52:01.422Z,99873.18
2019-06-19T22:54:29.228Z,99874.38
2019-06-19T22:56:56.588Z,99869.31
2019-06-19T22:59:23.745Z,99877.69
2019-06-19T23:02:07.216Z,99887.91
2019-06-19T23:04:34.779Z,99897.23
2019-06-19T23:07:02.062Z,99906.89
2019-06-19T23:09:29.335Z,99912.28
2019-06-19T23:11:56.531Z,99923.43
2019-06-19T23:14:23.803Z,99931.31
2019-06-19T23:16:51.072Z,99932.58
2019-06-19T23:19:18.250Z,99935.56
2019-06-19T23:21:45.451Z,99944.27
2019-06-19T23:24:13.213Z,99938.22
2019-06-19T23:26:40.504Z,99943.03
2019-06-19T23:29:07.706Z,99945.73
2019-06-19T23:31:35.153Z,99943.48
2019-06-19T23:34:02.627Z,99947.10
2019-06-19T23:36:30.266Z,99945.84
2019-06-19T23:38:57.808Z,99943.27
2019-06-19T23:41:25.060Z,99936.91
2019-06-19T23:43:52.284Z,99931.94
2019-06-19T23:46:19.953Z,99929.41
2019-06-19T23:48:47.158Z,99929.11
2019-06-19T23:51:14.382Z,99927.47
2019-06-19T23:53:41.572Z,99923.84
2019-06-19T23:56:08.645Z,99923.04
2019-06-19T23:58:35.826Z,99924.20
